Time;durP1;ratioP1;P1;durP2;ratioP2;P2;SDS_P1;SDS_P2;PMS_P1;PMS_P2;Temp;Humidity;BMP_temperature;BMP_pressure;BME280_temperature;BME280_humidity;BME280_pressure;Samples;Min_cycle;Max_cycle;Signal;HPM_P1;HPM_P2
2023/05/03 00:02:09;;;;;;;11.27;9.10;;;;;;;;;;5114588;28;20198;-79
2023/05/03 00:04:37;;;;;;;9.97;8.77;;;;;;;;;;5115057;28;20673;-79
2023/05/03 00:07:05;;;;;;;12.67;9.57;;;;;;;;;;5115442;28;20194;-79
2023/05/03 00:09:34;;;;;;;12.07;8.20;;;;;;;;;;5115060;28;20760;-79
2023/05/03 00:12:01;;;;;;;9.10;8.13;;;;;;;;;;5114934;28;20727;-79
2023/05/03 00:14:29;;;;;;;11.83;8.07;;;;;;;;;;5115160;28;20244;-79
2023/05/03 00:16:56;;;;;;;10.13;8.07;;;;;;;;;;5114586;28;20281;-79
2023/05/03 00:19:28;;;;;;;10.00;7.40;;;;;;;;;;5114772;28;20316;-78
2023/05/03 00:21:56;;;;;;;11.93;8.23;;;;;;;;;;5114705;28;20229;-78
2023/05/03 00:24:24;;;;;;;8.70;7.80;;;;;;;;;;5115086;28;20197;-78
2023/05/03 00:26:51;;;;;;;9.47;8.13;;;;;;;;;;5114769;28;20661;-79
2023/05/03 00:29:20;;;;;;;9.47;7.60;;;;;;;;;;5114733;28;20696;-79
2023/05/03 00:31:47;;;;;;;10.87;8.30;;;;;;;;;;5114212;28;20217;-79
2023/05/03 00:34:14;;;;;;;9.50;7.87;;;;;;;;;;5114536;28;20202;-79
2023/05/03 00:36:41;;;;;;;12.00;7.80;;;;;;;;;;5114546;28;20199;-79
2023/05/03 00:39:10;;;;;;;10.63;8.00;;;;;;;;;;5114458;28;20228;-79
2023/05/03 00:41:40;;;;;;;12.50;8.20;;;;;;;;;;5115005;28;20260;-79
2023/05/03 00:44:07;;;;;;;11.10;7.70;;;;;;;;;;5114165;28;20226;-79
2023/05/03 00:46:34;;;;;;;10.50;8.20;;;;;;;;;;5114129;28;20194;-79
2023/05/03 00:49:02;;;;;;;11.60;9.10;;;;;;;;;;5114451;28;20280;-79
2023/05/03 00:51:29;;;;;;;12.27;8.07;;;;;;;;;;5114336;28;20276;-78
2023/05/03 00:53:57;;;;;;;12.37;8.13;;;;;;;;;;5114597;28;20280;-79
2023/05/03 00:56:24;;;;;;;10.83;8.33;;;;;;;;;;5114349;28;20284;-79
2023/05/03 00:58:53;;;;;;;9.80;7.93;;;;;;;;;;5114022;28;20651;-78
2023/05/03 01:01:20;;;;;;;10.27;7.80;;;;;;;;;;5113659;28;20243;-79
2023/05/03 01:03:49;;;;;;;11.47;8.50;;;;;;;;;;5114310;28;20197;-79
2023/05/03 01:06:18;;;;;;;10.93;8.23;;;;;;;;;;5112919;28;20697;-78
2023/05/03 01:08:48;;;;;;;12.00;8.30;;;;;;;;;;5113878;28;20581;-78
2023/05/03 01:11:18;;;;;;;12.80;8.37;;;;;;;;;;5114191;28;20221;-79
2023/05/03 01:13:51;;;;;;;11.00;8.17;;;;;;;;;;5113781;28;20243;-79
2023/05/03 01:16:25;;;;;;;12.53;7.93;;;;;;;;;;5113991;28;20297;-79
2023/05/03 01:18:53;;;;;;;10.73;8.17;;;;;;;;;;5113462;28;20225;-79
2023/05/03 01:21:21;;;;;;;12.67;8.20;;;;;;;;;;5113938;28;20201;-78
2023/05/03 01:23:55;;;;;;;10.37;8.10;;;;;;;;;;5113793;28;20663;-79
2023/05/03 01:26:24;;;;;;;11.83;8.10;;;;;;;;;;5114123;28;20285;-79
2023/05/03 01:28:52;;;;;;;10.80;7.77;;;;;;;;;;5112877;28;20217;-79
2023/05/03 01:31:21;;;;;;;10.50;7.80;;;;;;;;;;5113414;28;20707;-79
2023/05/03 01:33:50;;;;;;;9.97;7.87;;;;;;;;;;5113502;28;20198;-79
2023/05/03 01:36:22;;;;;;;9.97;7.77;;;;;;;;;;5114042;28;20733;-79
2023/05/03 01:38:49;;;;;;;11.70;8.00;;;;;;;;;;5107380;28;20232;-78
2023/05/03 01:41:18;;;;;;;12.27;9.03;;;;;;;;;;5101988;28;20642;-79
2023/05/03 01:43:48;;;;;;;11.90;8.13;;;;;;;;;;5092740;28;20780;-78
2023/05/03 01:46:15;;;;;;;13.67;8.30;;;;;;;;;;5092941;28;20292;-78
2023/05/03 01:48:42;;;;;;;11.10;7.57;;;;;;;;;;5093035;28;20637;-78
2023/05/03 01:51:09;;;;;;;11.23;8.47;;;;;;;;;;5092877;28;20667;-76
2023/05/03 01:53:37;;;;;;;9.03;7.17;;;;;;;;;;5092750;28;20252;-79
2023/05/03 01:56:04;;;;;;;9.77;7.30;;;;;;;;;;5092421;28;20248;-79
2023/05/03 01:58:31;;;;;;;9.77;7.20;;;;;;;;;;5092411;28;20312;-79
2023/05/03 02:01:00;;;;;;;10.77;7.87;;;;;;;;;;5092799;28;20201;-79
2023/05/03 02:03:27;;;;;;;12.50;8.17;;;;;;;;;;5092561;28;20293;-79
2023/05/03 02:05:54;;;;;;;10.83;7.20;;;;;;;;;;5092689;28;20240;-78
2023/05/03 02:08:21;;;;;;;10.17;7.90;;;;;;;;;;5092335;28;20259;-80
2023/05/03 02:10:48;;;;;;;12.60;7.93;;;;;;;;;;5092420;28;20289;-79
2023/05/03 02:13:15;;;;;;;11.90;8.10;;;;;;;;;;5093954;28;20282;-79
2023/05/03 02:15:43;;;;;;;11.43;8.00;;;;;;;;;;5112821;28;20194;-79
2023/05/03 02:18:11;;;;;;;11.50;8.70;;;;;;;;;;5112265;28;20197;-79
2023/05/03 02:20:39;;;;;;;12.33;8.67;;;;;;;;;;5112594;28;20247;-79
2023/05/03 02:23:06;;;;;;;11.77;8.43;;;;;;;;;;5112537;28;20228;-79
2023/05/03 02:25:33;;;;;;;11.27;8.13;;;;;;;;;;5112635;28;20197;-78
2023/05/03 02:28:00;;;;;;;11.60;8.90;;;;;;;;;;5112580;28;20672;-78
2023/05/03 02:30:27;;;;;;;12.23;8.33;;;;;;;;;;5112156;28;20292;-78
2023/05/03 02:32:55;;;;;;;12.33;8.90;;;;;;;;;;5112542;28;20243;-78
2023/05/03 02:35:23;;;;;;;14.10;9.00;;;;;;;;;;5112316;28;20199;-79
2023/05/03 02:37:50;;;;;;;12.63;9.00;;;;;;;;;;5112391;28;20289;-79
2023/05/03 02:40:18;;;;;;;12.53;9.13;;;;;;;;;;5112383;28;20225;-79
2023/05/03 02:42:45;;;;;;;12.13;9.20;;;;;;;;;;5111673;28;20286;-78
2023/05/03 02:45:12;;;;;;;14.43;8.87;;;;;;;;;;5112102;28;20646;-78
2023/05/03 02:47:39;;;;;;;14.67;9.53;;;;;;;;;;5112379;28;20196;-78
2023/05/03 02:50:07;;;;;;;13.57;9.10;;;;;;;;;;5112316;28;20220;-78
2023/05/03 02:52:35;;;;;;;13.13;9.47;;;;;;;;;;5112061;28;20231;-78
2023/05/03 02:55:03;;;;;;;12.17;8.77;;;;;;;;;;5111900;28;20198;-79
2023/05/03 02:57:30;;;;;;;14.33;9.73;;;;;;;;;;5111793;28;20232;-79
2023/05/03 02:59:58;;;;;;;14.63;9.53;;;;;;;;;;5111569;28;20660;-79
2023/05/03 03:02:25;;;;;;;13.00;9.03;;;;;;;;;;5111843;28;20681;-78
2023/05/03 03:04:52;;;;;;;14.30;9.97;;;;;;;;;;5112056;28;20217;-79
2023/05/03 03:07:19;;;;;;;12.70;9.37;;;;;;;;;;5111476;28;20200;-79
2023/05/03 03:09:48;;;;;;;13.37;9.60;;;;;;;;;;5111704;28;20302;-78
2023/05/03 03:12:15;;;;;;;14.80;10.40;;;;;;;;;;5111800;28;20292;-78
2023/05/03 03:14:44;;;;;;;14.07;10.33;;;;;;;;;;5111772;28;20201;-78
2023/05/03 03:17:12;;;;;;;17.23;10.20;;;;;;;;;;5111298;28;20299;-78
2023/05/03 03:19:39;;;;;;;14.80;10.13;;;;;;;;;;5111705;28;20221;-77
2023/05/03 03:22:06;;;;;;;14.77;10.30;;;;;;;;;;5112051;28;20236;-76
2023/05/03 03:24:33;;;;;;;16.70;10.07;;;;;;;;;;5111186;28;20204;-77
2023/05/03 03:27:02;;;;;;;15.77;10.47;;;;;;;;;;5111787;28;20700;-77
2023/05/03 03:29:30;;;;;;;14.97;10.40;;;;;;;;;;5112876;28;20198;-77
2023/05/03 03:31:57;;;;;;;16.17;10.80;;;;;;;;;;5115997;28;20301;-77
2023/05/03 03:34:24;;;;;;;15.13;10.80;;;;;;;;;;5116057;28;20280;-77
2023/05/03 03:36:52;;;;;;;14.23;10.30;;;;;;;;;;5115978;28;20660;-76
2023/05/03 03:39:19;;;;;;;14.93;10.50;;;;;;;;;;5115559;28;20339;-77
2023/05/03 03:41:46;;;;;;;14.07;10.30;;;;;;;;;;5115551;28;20203;-77
2023/05/03 03:44:15;;;;;;;14.07;10.53;;;;;;;;;;5115388;28;20364;-77
2023/05/03 03:46:42;;;;;;;15.90;11.00;;;;;;;;;;5115530;28;20204;-76
2023/05/03 03:49:09;;;;;;;14.60;10.80;;;;;;;;;;5115590;28;20202;-77
2023/05/03 03:51:37;;;;;;;17.47;11.23;;;;;;;;;;5115690;28;20286;-77
2023/05/03 03:54:05;;;;;;;15.03;11.27;;;;;;;;;;5115104;28;20325;-77
2023/05/03 03:56:32;;;;;;;16.90;11.73;;;;;;;;;;5115620;28;20288;-77
2023/05/03 03:58:59;;;;;;;18.10;11.53;;;;;;;;;;5115504;28;20233;-77
2023/05/03 04:01:28;;;;;;;16.30;11.90;;;;;;;;;;5115162;28;20298;-76
2023/05/03 04:03:55;;;;;;;16.10;11.83;;;;;;;;;;5115110;28;20291;-77
2023/05/03 04:06:22;;;;;;;17.10;12.07;;;;;;;;;;5115047;28;20236;-77
2023/05/03 04:08:49;;;;;;;15.30;11.90;;;;;;;;;;5114665;28;20201;-77
2023/05/03 04:11:17;;;;;;;16.13;12.00;;;;;;;;;;5115483;28;20221;-76
2023/05/03 04:13:44;;;;;;;16.67;11.63;;;;;;;;;;5114908;28;20305;-77
2023/05/03 04:16:11;;;;;;;15.80;11.63;;;;;;;;;;5115005;28;20272;-77
2023/05/03 04:18:40;;;;;;;16.83;11.70;;;;;;;;;;5115089;28;20191;-77
2023/05/03 04:21:07;;;;;;;18.30;12.60;;;;;;;;;;5115105;28;20198;-77
2023/05/03 04:23:34;;;;;;;14.10;11.03;;;;;;;;;;5114786;28;20213;-77
2023/05/03 04:26:01;;;;;;;17.10;11.57;;;;;;;;;;5115462;28;20285;-77
2023/05/03 04:28:29;;;;;;;16.07;11.50;;;;;;;;;;5115086;28;20284;-77
2023/05/03 04:30:57;;;;;;;17.40;13.00;;;;;;;;;;5115194;28;20225;-76
2023/05/03 04:33:24;;;;;;;14.97;11.60;;;;;;;;;;5114471;28;20694;-76
2023/05/03 04:35:53;;;;;;;16.67;11.80;;;;;;;;;;5114636;28;20283;-76
2023/05/03 04:38:21;;;;;;;16.83;11.90;;;;;;;;;;5114841;28;20284;-77
2023/05/03 04:40:48;;;;;;;16.73;12.57;;;;;;;;;;5114269;28;20227;-76
2023/05/03 04:43:15;;;;;;;19.03;12.70;;;;;;;;;;5114135;28;20264;-77
2023/05/03 04:45:43;;;;;;;15.50;11.47;;;;;;;;;;5114600;28;20293;-77
2023/05/03 04:48:10;;;;;;;17.00;12.13;;;;;;;;;;5114805;28;20288;-77
2023/05/03 04:50:37;;;;;;;16.73;12.27;;;;;;;;;;5114175;28;20297;-77
2023/05/03 04:53:06;;;;;;;13.97;11.87;;;;;;;;;;5113464;28;20251;-77
2023/05/03 04:55:33;;;;;;;16.30;12.50;;;;;;;;;;5114468;28;20194;-77
2023/05/03 04:58:00;;;;;;;17.17;12.23;;;;;;;;;;5114033;28;20661;-77
2023/05/03 05:00:28;;;;;;;17.07;12.27;;;;;;;;;;5114209;28;20240;-76
2023/05/03 05:02:55;;;;;;;16.47;12.33;;;;;;;;;;5113988;28;20223;-77
2023/05/03 05:05:22;;;;;;;18.47;11.83;;;;;;;;;;5114093;28;20194;-78
2023/05/03 05:07:49;;;;;;;17.67;12.70;;;;;;;;;;5111403;27;20578;-78
2023/05/03 05:10:18;;;;;;;15.23;11.90;;;;;;;;;;5114490;27;20208;-77
2023/05/03 05:12:45;;;;;;;15.73;12.67;;;;;;;;;;5113233;28;20293;-77
2023/05/03 05:15:12;;;;;;;15.63;12.30;;;;;;;;;;5112212;28;20292;-77
2023/05/03 05:17:39;;;;;;;15.97;12.70;;;;;;;;;;5113670;28;20196;-78
2023/05/03 05:20:11;;;;;;;14.83;12.20;;;;;;;;;;5113889;28;20774;-76
2023/05/03 05:22:38;;;;;;;17.17;13.17;;;;;;;;;;5113618;28;20190;-77
2023/05/03 05:25:06;;;;;;;15.53;12.83;;;;;;;;;;5113631;28;20280;-77
2023/05/03 05:27:34;;;;;;;15.93;11.63;;;;;;;;;;5114122;28;20276;-77
2023/05/03 05:30:03;;;;;;;15.97;11.90;;;;;;;;;;5113568;28;20204;-78
2023/05/03 05:32:30;;;;;;;15.20;11.97;;;;;;;;;;5113744;28;20186;-78
2023/05/03 05:34:57;;;;;;;13.93;11.70;;;;;;;;;;5113425;28;20198;-77
2023/05/03 05:37:26;;;;;;;15.77;12.53;;;;;;;;;;5111873;28;20208;-79
2023/05/03 05:39:54;;;;;;;13.03;11.63;;;;;;;;;;5113254;28;20235;-77
2023/05/03 05:42:21;;;;;;;13.53;11.33;;;;;;;;;;5101983;28;20225;-79
2023/05/03 05:44:51;;;;;;;13.60;11.43;;;;;;;;;;5105139;28;20893;-76
2023/05/03 05:47:18;;;;;;;13.97;11.80;;;;;;;;;;5104803;28;20682;-78
2023/05/03 05:49:45;;;;;;;12.90;11.60;;;;;;;;;;5109693;28;20332;-78
2023/05/03 05:52:12;;;;;;;14.53;12.20;;;;;;;;;;5110626;28;20289;-78
2023/05/03 05:54:39;;;;;;;14.37;11.10;;;;;;;;;;5102195;28;20289;-77
2023/05/03 05:57:07;;;;;;;13.03;11.07;;;;;;;;;;5112916;28;20194;-76
2023/05/03 05:59:34;;;;;;;12.27;10.97;;;;;;;;;;5112659;28;20224;-77
2023/05/03 06:02:03;;;;;;;13.30;10.93;;;;;;;;;;5112959;28;20201;-77
2023/05/03 06:04:30;;;;;;;12.57;11.27;;;;;;;;;;5111409;28;20202;-78
2023/05/03 06:06:57;;;;;;;12.47;11.17;;;;;;;;;;5112050;28;20277;-78
2023/05/03 06:09:24;;;;;;;11.53;10.43;;;;;;;;;;5112776;28;20644;-78
2023/05/03 06:11:52;;;;;;;12.47;10.53;;;;;;;;;;5112088;28;20752;-77
2023/05/03 06:14:19;;;;;;;11.83;10.67;;;;;;;;;;5112520;28;20198;-78
2023/05/03 06:16:46;;;;;;;11.67;10.47;;;;;;;;;;5112354;28;20194;-78
2023/05/03 06:19:15;;;;;;;12.47;10.13;;;;;;;;;;5112328;28;20581;-77
2023/05/03 06:21:42;;;;;;;10.87;9.77;;;;;;;;;;5112299;28;20289;-77
2023/05/03 06:24:09;;;;;;;11.67;10.60;;;;;;;;;;5111684;28;20189;-77
2023/05/03 06:26:36;;;;;;;10.13;9.13;;;;;;;;;;5111370;28;20238;-78
2023/05/03 06:29:04;;;;;;;9.57;8.52;;;;;;;;;;5111799;28;20685;-78
2023/05/03 06:31:31;;;;;;;9.95;9.02;;;;;;;;;;5112279;28;20308;-78
2023/05/03 06:33:58;;;;;;;10.38;9.05;;;;;;;;;;5111380;28;20304;-78
2023/05/03 06:36:28;;;;;;;9.77;8.10;;;;;;;;;;5111920;28;20658;-78
2023/05/03 06:38:55;;;;;;;9.68;8.77;;;;;;;;;;5110955;28;20614;-77
2023/05/03 06:41:23;;;;;;;10.23;8.13;;;;;;;;;;5110090;28;20324;-79
2023/05/03 06:43:50;;;;;;;8.52;7.72;;;;;;;;;;5110184;28;20222;-78
2023/05/03 06:46:17;;;;;;;8.65;7.80;;;;;;;;;;5111531;28;20967;-77
2023/05/03 06:48:45;;;;;;;9.55;7.78;;;;;;;;;;5111330;28;20197;-79
2023/05/03 06:51:12;;;;;;;9.38;7.80;;;;;;;;;;5111550;28;20592;-79
2023/05/03 06:53:40;;;;;;;7.97;7.18;;;;;;;;;;5112210;28;20312;-79
2023/05/03 06:56:08;;;;;;;7.50;6.78;;;;;;;;;;5111306;28;20258;-80
2023/05/03 06:58:35;;;;;;;8.68;6.28;;;;;;;;;;5111620;28;20194;-79
2023/05/03 07:01:02;;;;;;;7.60;6.70;;;;;;;;;;5111630;28;20709;-79
2023/05/03 07:03:30;;;;;;;7.80;6.88;;;;;;;;;;5111318;28;20186;-78
2023/05/03 07:05:57;;;;;;;7.30;6.60;;;;;;;;;;5111281;28;20200;-79
2023/05/03 07:08:24;;;;;;;8.73;6.32;;;;;;;;;;5111746;28;20196;-78
2023/05/03 07:10:52;;;;;;;8.05;6.32;;;;;;;;;;5111388;28;20564;-79
2023/05/03 07:13:20;;;;;;;6.70;6.00;;;;;;;;;;5105325;28;20292;-80
2023/05/03 07:15:47;;;;;;;6.50;5.90;;;;;;;;;;5107560;28;20217;-79
2023/05/03 07:18:14;;;;;;;7.68;6.18;;;;;;;;;;5109879;28;20292;-80
2023/05/03 07:20:41;;;;;;;6.05;5.53;;;;;;;;;;5100484;28;20240;-79
2023/05/03 07:23:08;;;;;;;6.72;6.03;;;;;;;;;;5091195;28;20281;-80
2023/05/03 07:25:38;;;;;;;6.75;5.60;;;;;;;;;;5091066;28;20229;-79
2023/05/03 07:28:06;;;;;;;9.90;5.72;;;;;;;;;;5090966;28;20195;-80
2023/05/03 07:30:33;;;;;;;6.55;5.43;;;;;;;;;;5091444;28;20222;-79
2023/05/03 07:33:01;;;;;;;6.25;5.55;;;;;;;;;;5090756;28;20226;-80
2023/05/03 07:35:28;;;;;;;6.50;5.15;;;;;;;;;;5108906;28;20197;-80
2023/05/03 07:37:55;;;;;;;6.03;5.43;;;;;;;;;;5110220;28;20201;-79
2023/05/03 07:40:22;;;;;;;5.63;5.13;;;;;;;;;;5110564;28;20221;-79
2023/05/03 07:42:50;;;;;;;7.88;5.15;;;;;;;;;;5110494;28;20229;-79
2023/05/03 07:45:19;;;;;;;8.10;5.07;;;;;;;;;;5110780;28;20193;-79
2023/05/03 07:47:47;;;;;;;6.18;4.88;;;;;;;;;;5111148;28;20654;-80
2023/05/03 07:50:14;;;;;;;5.10;4.60;;;;;;;;;;5111101;28;20292;-79
2023/05/03 07:52:42;;;;;;;5.20;4.80;;;;;;;;;;5111035;28;20198;-79
2023/05/03 07:55:09;;;;;;;5.32;4.82;;;;;;;;;;5110685;28;20580;-80
2023/05/03 07:57:36;;;;;;;5.72;4.82;;;;;;;;;;5111266;28;20284;-79
2023/05/03 08:00:04;;;;;;;6.47;4.45;;;;;;;;;;5110717;28;20289;-77
2023/05/03 08:02:33;;;;;;;6.43;4.30;;;;;;;;;;5111200;28;20729;-80
2023/05/03 08:05:00;;;;;;;5.20;4.70;;;;;;;;;;5104879;28;20221;-77
2023/05/03 08:07:28;;;;;;;4.68;4.25;;;;;;;;;;5111284;28;20201;-79
2023/05/03 08:09:57;;;;;;;7.57;4.60;;;;;;;;;;5111111;28;20595;-79
2023/05/03 08:12:24;;;;;;;5.10;3.95;;;;;;;;;;5111041;28;20190;-78
2023/05/03 08:14:52;;;;;;;6.82;4.25;;;;;;;;;;5110022;28;20694;-79
2023/05/03 08:17:20;;;;;;;5.65;4.22;;;;;;;;;;5114994;28;20623;-79
2023/05/03 08:19:49;;;;;;;6.20;4.32;;;;;;;;;;5114656;28;20966;-79
2023/05/03 08:22:17;;;;;;;4.53;3.97;;;;;;;;;;5114705;28;20229;-79
2023/05/03 08:24:44;;;;;;;5.68;4.10;;;;;;;;;;5114350;28;20197;-77
2023/05/03 08:27:11;;;;;;;5.78;4.30;;;;;;;;;;5114443;28;20650;-79
2023/05/03 08:29:38;;;;;;;5.90;4.10;;;;;;;;;;5112785;28;20197;-78
2023/05/03 08:32:06;;;;;;;5.68;4.00;;;;;;;;;;5104871;28;20230;-78
2023/05/03 08:34:33;;;;;;;4.43;4.00;;;;;;;;;;5103583;28;20292;-79
2023/05/03 08:37:03;;;;;;;4.63;4.15;;;;;;;;;;5114579;28;20190;-79
2023/05/03 08:39:31;;;;;;;5.15;3.80;;;;;;;;;;5113008;28;20201;-78
2023/05/03 08:41:59;;;;;;;5.18;4.18;;;;;;;;;;5106824;28;20701;-79
2023/05/03 08:44:29;;;;;;;5.28;3.75;;;;;;;;;;5107026;28;20202;-78
2023/05/03 08:46:56;;;;;;;4.65;4.10;;;;;;;;;;5114650;28;20233;-78
2023/05/03 08:49:24;;;;;;;5.20;4.05;;;;;;;;;;5113979;28;20193;-78
2023/05/03 08:51:52;;;;;;;5.40;3.90;;;;;;;;;;5113949;28;20288;-77
2023/05/03 08:54:20;;;;;;;4.90;3.42;;;;;;;;;;5114202;28;20232;-79
2023/05/03 08:56:48;;;;;;;4.07;3.58;;;;;;;;;;5113982;28;20197;-77
2023/05/03 08:59:16;;;;;;;4.20;3.65;;;;;;;;;;5113451;28;20286;-78
2023/05/03 09:01:43;;;;;;;5.75;3.97;;;;;;;;;;5114204;28;20278;-78
2023/05/03 09:04:11;;;;;;;5.75;3.63;;;;;;;;;;5113735;28;20827;-78
2023/05/03 09:06:38;;;;;;;5.72;3.72;;;;;;;;;;5113766;28;20289;-78
2023/05/03 09:09:07;;;;;;;7.15;3.85;;;;;;;;;;5113893;28;20230;-77
2023/05/03 09:11:36;;;;;;;5.35;3.90;;;;;;;;;;5114243;27;20663;-79
2023/05/03 09:14:11;;;;;;;5.13;3.65;;;;;;;;;;5113420;28;20577;-79
2023/05/03 09:16:39;;;;;;;3.95;3.55;;;;;;;;;;5113406;28;20229;-78
2023/05/03 09:19:08;;;;;;;4.63;3.35;;;;;;;;;;5113486;28;20192;-78
2023/05/03 09:21:36;;;;;;;4.00;3.60;;;;;;;;;;5113548;28;20227;-77
2023/05/03 09:24:03;;;;;;;3.60;3.22;;;;;;;;;;5111825;28;20198;-79
2023/05/03 09:26:31;;;;;;;6.40;3.90;;;;;;;;;;5092276;28;20709;-77
2023/05/03 09:29:01;;;;;;;4.10;3.25;;;;;;;;;;5099963;28;20675;-78
2023/05/03 09:31:29;;;;;;;6.80;3.55;;;;;;;;;;5102964;28;20241;-79
2023/05/03 09:33:56;;;;;;;4.82;3.33;;;;;;;;;;5104219;28;20202;-79
2023/05/03 09:36:24;;;;;;;5.50;3.83;;;;;;;;;;5112268;28;20916;-80
2023/05/03 09:38:52;;;;;;;6.15;3.75;;;;;;;;;;5112423;28;20284;-80
2023/05/03 09:41:27;;;;;;;4.03;3.42;;;;;;;;;;5112857;28;20230;-79
2023/05/03 09:43:55;;;;;;;4.55;3.63;;;;;;;;;;5106189;28;20229;-80
2023/05/03 09:46:24;;;;;;;4.68;3.67;;;;;;;;;;5093259;28;20230;-80
2023/05/03 09:48:54;;;;;;;8.57;3.67;;;;;;;;;;5112081;28;20197;-81
2023/05/03 09:51:23;;;;;;;6.70;3.70;;;;;;;;;;5113205;28;20254;-81
2023/05/03 09:53:50;;;;;;;4.32;3.90;;;;;;;;;;5112988;28;20391;-81
2023/05/03 09:56:21;;;;;;;4.13;3.40;;;;;;;;;;5106069;28;20198;-80
2023/05/03 09:58:48;;;;;;;4.35;3.40;;;;;;;;;;5109218;28;20713;-80
2023/05/03 10:01:16;;;;;;;4.93;3.10;;;;;;;;;;5112573;28;20701;-80
2023/05/03 10:03:46;;;;;;;4.45;3.17;;;;;;;;;;5102031;28;20206;-81
2023/05/03 10:06:20;;;;;;;4.45;3.10;;;;;;;;;;5109167;28;20205;-80
2023/05/03 10:08:50;;;;;;;4.80;3.13;;;;;;;;;;5112463;28;20209;-79
2023/05/03 10:11:17;;;;;;;5.82;3.65;;;;;;;;;;5112588;28;20237;-78
2023/05/03 10:13:45;;;;;;;3.75;3.33;;;;;;;;;;5112335;28;20255;-80
2023/05/03 10:16:16;;;;;;;6.07;3.47;;;;;;;;;;5112305;28;20309;-80
2023/05/03 10:18:48;;;;;;;3.83;3.10;;;;;;;;;;5112462;28;20197;-80
2023/05/03 10:21:19;;;;;;;7.53;3.25;;;;;;;;;;5112860;28;20302;-80
2023/05/03 10:24:05;;;;;;;6.55;3.50;;;;;;;;;;5112489;28;20201;-79
2023/05/03 10:26:32;;;;;;;6.95;3.42;;;;;;;;;;5112093;28;20276;-80
2023/05/03 10:29:00;;;;;;;4.03;3.30;;;;;;;;;;5111510;28;20202;-81
2023/05/03 10:31:50;;;;;;;4.15;3.60;;;;;;;;;;5111163;28;20202;-80
2023/05/03 10:34:23;;;;;;;5.93;3.50;;;;;;;;;;5091756;28;20208;-80
2023/05/03 10:36:52;;;;;;;3.97;3.35;;;;;;;;;;5111936;28;20777;-78
2023/05/03 10:39:20;;;;;;;5.57;2.97;;;;;;;;;;5103024;28;20293;-80
2023/05/03 10:41:57;;;;;;;3.95;3.28;;;;;;;;;;5096627;28;20262;-80
2023/05/03 10:44:28;;;;;;;4.57;3.42;;;;;;;;;;5109239;28;20309;-79
2023/05/03 10:46:55;;;;;;;5.45;3.33;;;;;;;;;;5112010;28;20818;-80
2023/05/03 10:49:26;;;;;;;4.80;3.70;;;;;;;;;;5111452;28;20197;-80
2023/05/03 10:51:53;;;;;;;4.72;3.30;;;;;;;;;;5112872;28;20329;-79
2023/05/03 10:54:20;;;;;;;3.50;3.20;;;;;;;;;;5111398;28;20284;-82
2023/05/03 10:56:54;;;;;;;4.10;3.58;;;;;;;;;;5111942;28;20288;-81
2023/05/03 10:59:23;;;;;;;5.90;3.60;;;;;;;;;;5111670;28;20199;-80
2023/05/03 11:01:51;;;;;;;4.78;3.50;;;;;;;;;;5111829;28;20229;-80
2023/05/03 11:04:24;;;;;;;5.10;3.42;;;;;;;;;;5112027;28;20228;-80
2023/05/03 11:06:55;;;;;;;5.60;4.05;;;;;;;;;;5111254;28;20609;-80
2023/05/03 11:09:30;;;;;;;4.47;3.28;;;;;;;;;;5111452;28;20225;-79
2023/05/03 11:11:58;;;;;;;4.10;3.67;;;;;;;;;;5111516;28;20552;-80
2023/05/03 11:14:25;;;;;;;3.78;3.30;;;;;;;;;;5111715;28;20198;-80
2023/05/03 11:16:55;;;;;;;3.70;3.08;;;;;;;;;;5111505;28;20288;-81
2023/05/03 11:19:24;;;;;;;4.90;3.00;;;;;;;;;;5111789;28;20217;-79
2023/05/03 11:21:51;;;;;;;5.82;3.00;;;;;;;;;;5111103;28;20747;-81
2023/05/03 11:24:20;;;;;;;6.00;3.50;;;;;;;;;;5111160;28;20196;-81
2023/05/03 11:26:47;;;;;;;3.97;2.80;;;;;;;;;;5111390;28;20279;-81
2023/05/03 11:29:16;;;;;;;6.93;2.80;;;;;;;;;;5111690;28;20194;-81
2023/05/03 11:31:43;;;;;;;5.78;2.95;;;;;;;;;;5111396;28;20661;-81
2023/05/03 11:34:11;;;;;;;4.15;2.97;;;;;;;;;;5111104;28;20246;-81
2023/05/03 11:36:38;;;;;;;4.22;3.30;;;;;;;;;;5111009;28;20705;-79
2023/05/03 11:39:06;;;;;;;4.07;2.40;;;;;;;;;;5110301;28;20288;-77
2023/05/03 11:41:34;;;;;;;5.32;3.53;;;;;;;;;;5111501;28;20660;-77
2023/05/03 11:44:02;;;;;;;5.50;3.00;;;;;;;;;;5111225;28;20236;-79
2023/05/03 11:46:32;;;;;;;3.35;2.90;;;;;;;;;;5111187;28;20709;-79
2023/05/03 11:48:59;;;;;;;3.10;2.72;;;;;;;;;;5111242;28;20281;-79
2023/05/03 11:51:27;;;;;;;6.05;3.15;;;;;;;;;;5113549;28;20247;-78
2023/05/03 11:53:54;;;;;;;3.42;2.85;;;;;;;;;;5112771;28;20201;-78
2023/05/03 11:56:21;;;;;;;4.32;2.78;;;;;;;;;;5103481;28;20293;-78
2023/05/03 11:58:55;;;;;;;6.15;2.75;;;;;;;;;;5096692;28;20313;-78
2023/05/03 12:01:23;;;;;;;3.13;2.67;;;;;;;;;;5098536;28;20225;-78
2023/05/03 12:03:53;;;;;;;5.78;2.78;;;;;;;;;;5103181;28;20190;-78
2023/05/03 12:06:21;;;;;;;3.10;2.80;;;;;;;;;;5094921;28;20226;-78
2023/05/03 12:08:48;;;;;;;2.97;2.67;;;;;;;;;;5110330;28;20641;-77
2023/05/03 12:11:15;;;;;;;4.55;2.63;;;;;;;;;;5114970;28;20292;-77
2023/05/03 12:13:43;;;;;;;3.28;2.50;;;;;;;;;;5111886;27;20289;-77
2023/05/03 12:16:13;;;;;;;4.88;2.67;;;;;;;;;;5115411;27;20686;-78
2023/05/03 12:18:51;;;;;;;4.43;2.90;;;;;;;;;;5115463;27;20197;-76
2023/05/03 12:21:18;;;;;;;4.10;2.72;;;;;;;;;;5109235;28;20198;-78
2023/05/03 12:23:48;;;;;;;6.63;2.95;;;;;;;;;;5114275;28;20190;-78
2023/05/03 12:26:15;;;;;;;4.15;2.80;;;;;;;;;;5114438;28;20202;-77
2023/05/03 12:28:43;;;;;;;3.35;2.55;;;;;;;;;;5114345;28;20224;-78
2023/05/03 12:31:11;;;;;;;5.43;2.70;;;;;;;;;;5114381;28;20190;-78
2023/05/03 12:33:39;;;;;;;4.07;2.55;;;;;;;;;;5106607;28;20202;-77
2023/05/03 12:36:07;;;;;;;5.65;2.67;;;;;;;;;;5099781;28;20198;-77
2023/05/03 12:38:35;;;;;;;4.75;2.65;;;;;;;;;;5104878;27;20213;-77
2023/05/03 12:41:02;;;;;;;3.80;2.53;;;;;;;;;;5120104;27;20689;-77
2023/05/03 12:43:29;;;;;;;6.35;3.00;;;;;;;;;;5111462;27;20245;-77
2023/05/03 12:46:01;;;;;;;3.60;2.45;;;;;;;;;;5113730;28;20286;-78
2023/05/03 12:48:29;;;;;;;4.15;2.70;;;;;;;;;;5111515;27;20189;-78
2023/05/03 12:50:57;;;;;;;3.95;2.78;;;;;;;;;;5110577;28;20254;-77
2023/05/03 12:53:25;;;;;;;3.85;2.88;;;;;;;;;;5117822;27;20630;-78
2023/05/03 12:55:52;;;;;;;4.10;2.80;;;;;;;;;;5113456;28;20280;-77
2023/05/03 12:58:19;;;;;;;2.58;2.38;;;;;;;;;;5113319;28;20280;-78
2023/05/03 13:00:47;;;;;;;2.67;2.42;;;;;;;;;;5112796;28;20670;-77
2023/05/03 13:03:14;;;;;;;6.45;2.60;;;;;;;;;;5108018;28;20240;-78
2023/05/03 13:05:43;;;;;;;5.65;3.00;;;;;;;;;;5113514;27;20189;-78
2023/05/03 13:08:10;;;;;;;3.97;2.75;;;;;;;;;;5113275;28;20194;-78
2023/05/03 13:10:39;;;;;;;3.95;2.65;;;;;;;;;;5112679;28;20194;-78
2023/05/03 13:13:08;;;;;;;3.55;2.50;;;;;;;;;;5112716;28;20213;-78
2023/05/03 13:15:36;;;;;;;3.28;2.40;;;;;;;;;;5112180;28;20198;-79
2023/05/03 13:18:03;;;;;;;5.15;2.70;;;;;;;;;;5112276;28;20186;-77
2023/05/03 13:20:31;;;;;;;4.35;2.30;;;;;;;;;;5113385;28;20197;-78
2023/05/03 13:22:59;;;;;;;4.85;2.65;;;;;;;;;;5111094;28;20324;-77
2023/05/03 13:25:26;;;;;;;2.90;2.50;;;;;;;;;;5113239;28;20205;-76
2023/05/03 13:27:54;;;;;;;7.55;2.88;;;;;;;;;;5113496;28;20293;-78
2023/05/03 13:30:22;;;;;;;7.38;2.38;;;;;;;;;;5107587;28;20195;-77
2023/05/03 13:32:49;;;;;;;4.38;2.63;;;;;;;;;;5105558;28;20233;-78
2023/05/03 13:35:17;;;;;;;3.05;2.40;;;;;;;;;;5107709;27;20193;-77
2023/05/03 13:37:44;;;;;;;4.22;2.33;;;;;;;;;;5109723;27;20198;-78
2023/05/03 13:40:14;;;;;;;4.53;2.50;;;;;;;;;;5112013;27;20221;-78
2023/05/03 13:42:41;;;;;;;3.15;1.92;;;;;;;;;;5107406;28;20608;-78
2023/05/03 13:45:09;;;;;;;3.22;2.35;;;;;;;;;;5105795;28;20244;-77
2023/05/03 13:47:36;;;;;;;4.45;2.72;;;;;;;;;;5108569;28;20285;-78
2023/05/03 13:50:03;;;;;;;5.30;2.88;;;;;;;;;;5108808;28;20281;-78
2023/05/03 13:52:30;;;;;;;4.03;2.53;;;;;;;;;;5112487;28;20269;-77
2023/05/03 13:54:59;;;;;;;2.30;2.10;;;;;;;;;;5111263;27;20230;-78
2023/05/03 13:57:27;;;;;;;3.55;2.20;;;;;;;;;;5111618;28;20194;-78
2023/05/03 13:59:55;;;;;;;3.28;2.13;;;;;;;;;;5110780;28;20277;-78
2023/05/03 14:02:22;;;;;;;3.50;2.28;;;;;;;;;;5111356;28;20700;-78
2023/05/03 14:04:50;;;;;;;4.43;2.30;;;;;;;;;;5111432;28;20225;-78
2023/05/03 14:07:17;;;;;;;3.67;2.40;;;;;;;;;;5111935;28;20200;-78
2023/05/03 14:09:44;;;;;;;4.03;2.10;;;;;;;;;;5111893;28;20562;-78
2023/05/03 14:12:12;;;;;;;5.03;2.30;;;;;;;;;;5108847;28;20193;-78
2023/05/03 14:14:40;;;;;;;3.83;2.22;;;;;;;;;;5108385;28;20726;-78
2023/05/03 14:17:08;;;;;;;3.75;2.55;;;;;;;;;;5108956;28;20194;-78
2023/05/03 14:19:36;;;;;;;4.10;1.95;;;;;;;;;;5109700;28;20716;-78
2023/05/03 14:22:03;;;;;;;4.70;2.25;;;;;;;;;;5106702;28;20197;-77
2023/05/03 14:24:30;;;;;;;3.10;2.20;;;;;;;;;;5112113;28;20943;-77
2023/05/03 14:27:00;;;;;;;4.50;2.20;;;;;;;;;;5106423;27;20558;-78
2023/05/03 14:29:27;;;;;;;5.13;2.20;;;;;;;;;;5110293;28;20251;-77
2023/05/03 14:31:56;;;;;;;4.25;2.50;;;;;;;;;;5106908;27;20197;-77
2023/05/03 14:34:23;;;;;;;2.72;2.17;;;;;;;;;;5110552;27;20219;-77
2023/05/03 14:36:51;;;;;;;3.97;2.65;;;;;;;;;;5108971;28;20297;-76
2023/05/03 14:39:18;;;;;;;3.00;1.98;;;;;;;;;;5110164;28;20193;-77
2023/05/03 14:41:46;;;;;;;3.70;2.28;;;;;;;;;;5110714;28;20190;-77